createdAt,value
2022-12-19T00:02:17.532Z,19.97
2022-12-19T00:05:42.202Z,19.73
2022-12-19T00:09:07.292Z,18.17
2022-12-19T00:12:30.700Z,22.20
2022-12-19T00:15:54.282Z,21.67
2022-12-19T00:19:17.729Z,19.10
2022-12-19T00:22:41.134Z,19.00
2022-12-19T00:26:12.987Z,19.37
2022-12-19T00:29:36.547Z,21.10
2022-12-19T00:33:00.694Z,18.03
2022-12-19T00:36:27.379Z,19.40
2022-12-19T00:39:50.875Z,19.57
2022-12-19T00:43:15.637Z,23.70
2022-12-19T00:46:39.250Z,21.40
2022-12-19T00:50:03.088Z,23.80
2022-12-19T00:53:26.710Z,22.17
2022-12-19T00:56:50.233Z,18.70
2022-12-19T01:00:17.823Z,21.57
2022-12-19T01:03:58.128Z,22.53
2022-12-19T01:07:26.195Z,20.10
2022-12-19T01:10:51.774Z,21.10
2022-12-19T01:14:22.317Z,24.00
2022-12-19T01:17:48.174Z,20.90
2022-12-19T01:21:12.477Z,21.73
2022-12-19T01:24:36.101Z,20.53
2022-12-19T01:27:59.542Z,24.10
2022-12-19T01:31:23.113Z,23.80
2022-12-19T01:34:47.971Z,21.97
2022-12-19T01:38:15.151Z,24.20
2022-12-19T01:41:39.194Z,23.37
2022-12-19T01:45:33.886Z,21.90
2022-12-19T01:48:58.859Z,25.50
2022-12-19T01:52:24.357Z,24.60
2022-12-19T01:55:48.330Z,24.13
2022-12-19T01:59:17.477Z,24.47
2022-12-19T02:02:49.701Z,22.03
2022-12-19T02:06:15.735Z,22.67
2022-12-19T02:09:41.139Z,22.37
2022-12-19T02:13:04.877Z,24.03
2022-12-19T02:16:47.527Z,24.00
2022-12-19T02:20:51.959Z,21.77
2022-12-19T02:24:57.216Z,24.97
2022-12-19T02:28:57.286Z,23.63
2022-12-19T02:32:34.770Z,22.30
2022-12-19T02:36:08.426Z,25.17
2022-12-19T02:39:42.735Z,21.07
2022-12-19T02:43:09.809Z,24.10
2022-12-19T02:46:33.926Z,28.00
2022-12-19T02:49:59.295Z,22.60
2022-12-19T02:53:24.116Z,23.10
2022-12-19T02:57:00.424Z,24.27
2022-12-19T03:00:28.694Z,24.60
2022-12-19T03:04:07.809Z,22.00
2022-12-19T03:07:48.310Z,20.90
2022-12-19T03:11:15.516Z,22.80
2022-12-19T03:14:44.749Z,22.67
2022-12-19T03:18:09.246Z,22.20
2022-12-19T03:21:37.347Z,26.40
2022-12-19T03:25:02.892Z,20.70
2022-12-19T03:28:35.492Z,23.67
2022-12-19T03:32:04.375Z,19.10
2022-12-19T03:35:32.667Z,23.67
2022-12-19T03:38:58.137Z,19.03
2022-12-19T03:42:45.270Z,21.10
2022-12-19T03:46:17.403Z,26.00
2022-12-19T03:49:41.656Z,22.93
2022-12-19T03:53:24.963Z,24.47
2022-12-19T03:56:58.094Z,23.70
2022-12-19T04:00:24.821Z,21.13
2022-12-19T04:03:49.145Z,25.23
2022-12-19T04:07:15.902Z,23.90
2022-12-19T04:10:49.560Z,25.77
2022-12-19T04:14:21.643Z,22.97
2022-12-19T04:17:54.389Z,26.77
2022-12-19T04:21:26.841Z,23.10
2022-12-19T04:24:53.664Z,21.40
2022-12-19T04:28:26.540Z,23.10
2022-12-19T04:31:51.036Z,21.80
2022-12-19T04:35:16.864Z,18.03
2022-12-19T04:38:40.525Z,19.17
2022-12-19T04:42:04.030Z,21.63
2022-12-19T04:45:27.701Z,21.50
2022-12-19T04:48:51.150Z,25.73
2022-12-19T04:52:15.984Z,20.67
2022-12-19T04:55:40.045Z,24.30
2022-12-19T04:59:03.601Z,20.70
2022-12-19T05:02:27.692Z,16.57
2022-12-19T05:05:51.712Z,20.30
2022-12-19T05:09:16.691Z,20.00
2022-12-19T05:12:42.382Z,18.73
2022-12-19T05:16:09.699Z,22.50
2022-12-19T05:19:33.245Z,18.23
2022-12-19T05:22:56.745Z,20.00
2022-12-19T05:26:21.835Z,19.17
2022-12-19T05:29:45.721Z,23.80
2022-12-19T05:33:09.300Z,18.17
2022-12-19T05:36:32.950Z,20.63
2022-12-19T05:39:56.514Z,19.80
2022-12-19T05:43:21.369Z,21.03
2022-12-19T05:46:45.086Z,19.67
2022-12-19T05:50:10.138Z,21.97
2022-12-19T05:53:35.956Z,22.67
2022-12-19T05:56:59.430Z,19.50
2022-12-19T06:00:25.612Z,19.43
2022-12-19T06:03:49.946Z,21.67
2022-12-19T06:07:16.596Z,23.87
2022-12-19T06:10:44.180Z,20.70
2022-12-19T06:14:07.636Z,23.67
2022-12-19T06:17:32.520Z,18.60
2022-12-19T06:21:00.908Z,18.93
2022-12-19T06:24:26.428Z,21.57
2022-12-19T06:27:49.983Z,19.43
2022-12-19T06:31:14.521Z,17.47
2022-12-19T06:35:03.288Z,19.30
2022-12-19T06:38:23.286Z,24.83
2022-12-19T06:42:04.223Z,21.20
2022-12-19T06:45:27.988Z,22.80
2022-12-19T06:48:52.710Z,22.57
2022-12-19T06:52:18.349Z,21.13
2022-12-19T06:55:41.952Z,18.47
2022-12-19T06:59:06.155Z,23.60
2022-12-19T07:02:32.944Z,20.77
2022-12-19T07:05:56.524Z,19.13
2022-12-19T07:09:21.609Z,20.70
2022-12-19T07:12:45.856Z,18.77
2022-12-19T07:16:09.739Z,18.00
2022-12-19T07:19:36.123Z,20.03
2022-12-19T07:23:00.853Z,21.10
2022-12-19T07:26:26.006Z,15.23
2022-12-19T07:29:49.981Z,20.30
2022-12-19T07:33:19.717Z,20.30
2022-12-19T07:36:44.868Z,16.43
2022-12-19T07:40:10.895Z,15.97
2022-12-19T07:43:35.893Z,15.03
2022-12-19T07:46:59.485Z,18.23
2022-12-19T07:50:23.392Z,17.30
2022-12-19T07:53:46.881Z,16.53
2022-12-19T07:57:10.398Z,14.40
2022-12-19T08:00:35.208Z,16.30
2022-12-19T08:03:59.061Z,18.97
2022-12-19T08:07:23.042Z,17.10
2022-12-19T08:10:46.594Z,15.20
2022-12-19T08:14:10.523Z,21.30
2022-12-19T08:17:35.836Z,20.23
2022-12-19T08:20:59.365Z,20.00
2022-12-19T08:24:22.881Z,18.43
2022-12-19T08:27:46.399Z,19.70
2022-12-19T08:31:13.290Z,20.80
2022-12-19T08:34:38.254Z,14.60
2022-12-19T08:38:01.675Z,17.00
2022-12-19T08:41:25.211Z,16.00
2022-12-19T08:44:48.721Z,17.80
2022-12-19T08:48:12.645Z,17.50
2022-12-19T08:51:37.564Z,16.03
2022-12-19T08:55:01.397Z,17.00
2022-12-19T08:58:25.640Z,16.50
2022-12-19T09:01:49.286Z,18.97
2022-12-19T09:06:01.517Z,17.53
2022-12-19T09:09:00.183Z,20.03
2022-12-19T09:12:24.048Z,15.50
2022-12-19T09:15:47.534Z,14.97
2022-12-19T09:19:15.452Z,15.40
2022-12-19T09:22:39.006Z,14.93
2022-12-19T09:26:07.829Z,14.00
2022-12-19T09:29:35.301Z,14.73
2022-12-19T09:33:17.559Z,13.33
2022-12-19T09:36:41.069Z,13.67
2022-12-19T09:40:05.080Z,14.33
2022-12-19T09:43:48.418Z,12.17
2022-12-19T09:47:16.801Z,10.10
2022-12-19T09:50:52.767Z,14.20
2022-12-19T09:54:24.472Z,12.03
2022-12-19T09:57:56.769Z,13.40
2022-12-19T10:01:31.470Z,13.00
2022-12-19T10:05:17.047Z,12.67
2022-12-19T10:10:34.509Z,13.07
2022-12-19T10:13:17.778Z,13.30
2022-12-19T10:17:23.093Z,9.90
2022-12-19T10:20:46.678Z,11.17
2022-12-19T10:25:09.248Z,13.43
2022-12-19T10:28:58.479Z,9.53
2022-12-19T10:32:36.581Z,10.97
2022-12-19T10:36:03.435Z,9.63
2022-12-19T10:39:34.776Z,10.13
2022-12-19T10:43:04.952Z,9.47
2022-12-19T10:46:43.487Z,8.93
2022-12-19T10:50:14.669Z,8.80
2022-12-19T10:53:38.192Z,11.17
2022-12-19T10:57:23.333Z,9.93
2022-12-19T11:01:20.493Z,12.33
2022-12-19T11:04:44.976Z,12.57
2022-12-19T11:08:20.697Z,10.77
2022-12-19T11:13:48.177Z,10.40
2022-12-19T11:19:05.387Z,13.43
2022-12-19T11:27:47.587Z,12.80
2022-12-19T11:29:36.579Z,19.30
2022-12-19T11:30:47.446Z,13.97
2022-12-19T11:34:29.353Z,11.60
2022-12-19T11:37:56.568Z,13.33
2022-12-19T11:41:34.177Z,13.43
2022-12-19T11:45:12.691Z,12.80
2022-12-19T11:48:45.321Z,11.83
2022-12-19T11:53:02.463Z,11.87
2022-12-19T11:56:16.604Z,10.93
2022-12-19T11:59:42.179Z,8.83
2022-12-19T12:03:55.900Z,9.10
2022-12-19T12:08:30.072Z,13.73
2022-12-19T12:18:39.864Z,15.07
2022-12-19T12:31:01.643Z,12.87
2022-12-19T12:31:10.767Z,13.03
2022-12-19T12:31:48.507Z,10.30
2022-12-19T12:31:57.407Z,9.57
2022-12-19T12:39:33.584Z,11.10
2022-12-19T12:43:18.484Z,10.20
2022-12-19T12:46:47.764Z,8.00
2022-12-19T12:50:18.788Z,9.97
2022-12-19T12:53:48.055Z,11.10
2022-12-19T12:57:33.894Z,10.23
2022-12-19T13:01:11.863Z,11.27
2022-12-19T13:04:42.982Z,7.27
2022-12-19T13:08:33.878Z,9.67
2022-12-19T13:12:21.964Z,7.50
2022-12-19T13:15:46.384Z,9.10
2022-12-19T13:19:22.578Z,9.83
2022-12-19T13:23:05.895Z,9.50
2022-12-19T13:26:52.401Z,11.70
2022-12-19T13:30:21.260Z,11.17
2022-12-19T13:34:18.372Z,9.80
2022-12-19T13:39:48.680Z,8.50
2022-12-19T13:41:49.144Z,9.80
2022-12-19T13:45:26.013Z,9.10
2022-12-19T13:48:53.224Z,9.10
2022-12-19T13:52:18.898Z,9.77
2022-12-19T13:55:42.402Z,12.53
2022-12-19T13:59:07.132Z,14.53
2022-12-19T14:02:44.095Z,13.47
2022-12-19T14:06:20.343Z,10.23
2022-12-19T14:11:30.476Z,8.47
2022-12-19T14:14:01.450Z,9.77
2022-12-19T14:17:31.763Z,9.90
2022-12-19T14:22:07.036Z,9.87
2022-12-19T14:26:06.600Z,9.37
2022-12-19T14:28:55.049Z,8.37
2022-12-19T14:33:40.355Z,10.70
2022-12-19T14:36:16.001Z,9.50
2022-12-19T14:39:43.501Z,8.00
2022-12-19T14:43:58.792Z,8.70
2022-12-19T14:54:02.060Z,7.37
2022-12-19T14:54:04.327Z,7.90
2022-12-19T14:56:17.752Z,8.50
2022-12-19T14:59:00.292Z,5.80
2022-12-19T15:02:32.859Z,5.87
2022-12-19T15:07:05.821Z,6.37
2022-12-19T15:11:04.447Z,6.63
2022-12-19T15:14:52.741Z,5.00
2022-12-19T15:17:26.801Z,3.70
2022-12-19T15:20:50.908Z,4.30
2022-12-19T15:24:15.112Z,4.83
2022-12-19T15:27:41.168Z,5.70
2022-12-19T15:31:11.446Z,7.23
2022-12-19T15:34:39.212Z,6.50
2022-12-19T15:38:08.532Z,5.87
2022-12-19T15:41:32.610Z,5.87
2022-12-19T15:45:00.046Z,8.80
2022-12-19T15:48:23.731Z,6.80
2022-12-19T15:51:47.764Z,6.77
2022-12-19T15:55:15.434Z,6.57
2022-12-19T15:58:38.933Z,6.60
2022-12-19T16:02:13.663Z,9.00
2022-12-19T16:05:37.364Z,7.10
2022-12-19T16:09:01.203Z,7.07
2022-12-19T16:12:33.874Z,5.80
2022-12-19T16:15:59.214Z,6.20
2022-12-19T16:19:29.992Z,4.27
2022-12-19T16:22:54.965Z,6.40
2022-12-19T16:26:34.394Z,6.80
2022-12-19T16:30:11.119Z,8.37
2022-12-19T16:33:36.919Z,8.00
2022-12-19T16:37:01.658Z,7.53
2022-12-19T16:40:27.149Z,8.90
2022-12-19T16:43:51.454Z,8.70
2022-12-19T16:47:18.838Z,7.30
2022-12-19T16:50:42.728Z,10.80
2022-12-19T16:54:07.740Z,7.77
2022-12-19T16:57:31.118Z,11.20
2022-12-19T17:00:56.343Z,10.00
2022-12-19T17:04:22.514Z,8.53
2022-12-19T17:07:47.031Z,9.33
2022-12-19T17:11:16.696Z,8.93
2022-12-19T17:14:40.425Z,10.00
2022-12-19T17:18:10.671Z,10.13
2022-12-19T17:21:34.493Z,11.00
2022-12-19T17:24:58.718Z,9.50
2022-12-19T17:28:23.996Z,9.97
2022-12-19T17:31:47.544Z,10.53
2022-12-19T17:35:21.322Z,7.97
2022-12-19T17:38:49.282Z,14.38
2022-12-19T17:42:23.979Z,9.00
2022-12-19T17:45:50.941Z,6.87
2022-12-19T17:49:19.211Z,7.93
2022-12-19T17:52:42.639Z,6.40
2022-12-19T17:56:06.858Z,7.13
2022-12-19T17:59:30.691Z,9.60
2022-12-19T18:02:57.760Z,8.33
2022-12-19T18:06:22.284Z,12.63
2022-12-19T18:09:46.111Z,7.40
2022-12-19T18:13:09.619Z,7.63
2022-12-19T18:16:34.201Z,9.60
2022-12-19T18:19:59.185Z,8.80
2022-12-19T18:23:24.923Z,11.20
2022-12-19T18:26:48.806Z,18.80
2022-12-19T18:30:16.042Z,13.73
2022-12-19T18:33:42.911Z,13.27
2022-12-19T18:37:14.419Z,16.37
2022-12-19T18:40:38.317Z,12.63
2022-12-19T18:44:02.465Z,12.80
2022-12-19T18:47:26.446Z,10.43
2022-12-19T18:50:50.238Z,9.23
2022-12-19T18:54:17.228Z,9.63
2022-12-19T18:57:42.771Z,9.37
2022-12-19T19:01:12.308Z,11.27
2022-12-19T19:04:36.145Z,10.33
2022-12-19T19:08:13.707Z,10.33
2022-12-19T19:11:38.853Z,12.00
2022-12-19T19:15:02.648Z,12.20
2022-12-19T19:18:29.835Z,12.97
2022-12-19T19:21:53.636Z,10.63
2022-12-19T19:25:18.710Z,12.95
2022-12-19T19:28:48.603Z,9.80
2022-12-19T19:32:15.822Z,10.40
2022-12-19T19:35:40.742Z,14.27
2022-12-19T19:39:05.906Z,14.20
2022-12-19T19:42:29.789Z,13.57
2022-12-19T19:45:54.988Z,11.57
2022-12-19T19:49:19.197Z,11.87
2022-12-19T19:52:43.331Z,11.33
2022-12-19T19:56:08.044Z,10.37
2022-12-19T19:59:32.413Z,9.00
2022-12-19T20:02:57.381Z,11.23
2022-12-19T20:06:21.520Z,8.50
2022-12-19T20:09:46.095Z,9.33
2022-12-19T20:13:11.007Z,10.00
2022-12-19T20:16:35.380Z,8.90
2022-12-19T20:20:00.321Z,8.00
2022-12-19T20:23:24.289Z,10.50
2022-12-19T20:26:48.146Z,8.50
2022-12-19T20:30:12.805Z,6.90
2022-12-19T20:33:36.623Z,9.20
2022-12-19T20:37:01.844Z,8.90
2022-12-19T20:40:25.650Z,8.37
2022-12-19T20:43:49.648Z,7.20
2022-12-19T20:47:13.403Z,9.10
2022-12-19T20:50:43.080Z,8.90
2022-12-19T20:54:08.603Z,8.47
2022-12-19T20:57:32.423Z,6.40
2022-12-19T21:00:57.061Z,7.83
2022-12-19T21:04:21.572Z,7.90
2022-12-19T21:07:45.979Z,5.90
2022-12-19T21:11:11.775Z,7.27
2022-12-19T21:14:35.632Z,7.37
2022-12-19T21:17:59.111Z,6.27
2022-12-19T21:21:26.985Z,7.43
2022-12-19T21:24:50.494Z,7.00
2022-12-19T21:28:15.579Z,8.20
2022-12-19T21:31:39.840Z,5.87
2022-12-19T21:35:03.877Z,7.43
2022-12-19T21:38:27.811Z,6.47
2022-12-19T21:41:51.760Z,6.80
2022-12-19T21:45:17.161Z,12.07
2022-12-19T21:48:43.589Z,9.77
2022-12-19T21:52:07.503Z,13.50
2022-12-19T21:55:31.188Z,10.60
2022-12-19T21:58:57.569Z,11.60
2022-12-19T22:02:22.595Z,8.93
2022-12-19T22:05:46.528Z,8.00
2022-12-19T22:09:13.657Z,8.60
2022-12-19T22:12:37.130Z,7.73
2022-12-19T22:16:05.024Z,6.67
2022-12-19T22:19:30.511Z,6.40
2022-12-19T22:22:54.401Z,7.17
2022-12-19T22:26:20.724Z,7.60
2022-12-19T22:29:45.464Z,6.70
2022-12-19T22:33:09.340Z,7.03
2022-12-19T22:36:36.776Z,5.40
2022-12-19T22:40:04.021Z,7.90
2022-12-19T22:43:29.908Z,7.00
2022-12-19T22:46:53.921Z,5.60
2022-12-19T22:50:17.896Z,6.40
2022-12-19T22:53:44.189Z,6.10
2022-12-19T22:57:08.129Z,11.23
2022-12-19T23:00:31.640Z,8.47
2022-12-19T23:03:58.620Z,8.43
2022-12-19T23:07:22.555Z,10.10
2022-12-19T23:10:51.922Z,7.83
2022-12-19T23:14:18.213Z,9.80
2022-12-19T23:17:42.258Z,8.73
2022-12-19T23:21:09.874Z,7.03
2022-12-19T23:24:33.623Z,12.87
2022-12-19T23:27:58.857Z,13.53
2022-12-19T23:31:23.589Z,14.70
2022-12-19T23:34:47.469Z,13.00
2022-12-19T23:38:11.747Z,11.53
2022-12-19T23:41:35.974Z,12.50
2022-12-19T23:45:01.663Z,9.87
2022-12-19T23:48:26.779Z,11.50
2022-12-19T23:51:50.255Z,9.83
2022-12-19T23:55:14.039Z,8.70
2022-12-19T23:58:37.921Z,13.23
